Αρχική σελίδα
METAR-TAF:

METAR-TAF

Αεροδρόμια :

Καράκας, Βενεζουέλα

γεωγραφικό πλάτος: 10-36N, γεωγραφικό μήκος: 066-59W, υψόμετρο: 43 μ

Παρών καιρός

Η αναφορά έγινε 32 λεπτά πριν, στις 08:02 UTC
Άνεμος 4 kt από Α
Θερμοκρασία 24°C
Πίεση 1014 hPa

METAR: SVMI 190802Z AUTO 09004KT NCD 24/// Q1014

Χρόνος: 04:34 (08:34 UTC)

Πρόγνωση Καιρού

Η αναφορά έγινε 4 ώρες και 34 λεπτά πριν, στις 04:00 UTC
Η πρόγνωση ισχύει από τις 19 στις 06 UTC έως τις 20 στις 06 UTC
Άνεμος 2 kt από Α/NA
Ορατότητα 10 χλμ και άνω
Διάσπαρτα νέφη σε ύψος 1600 πόδια
Προσωρινά
από 19 στις 06 UTC έως τις 19 στις 10 UTC
Άνεμος 5 kt από Α
Ορατότητα 10 χλμ και άνω
Λίγα νέφη σε ύψος 1600 πόδια

TAF: SVMI 190400Z 1906/2006 11002KT 9999 SCT016 TX30/17Z TN22/08Z TEMPO 1906/1910 08005KT 9999 FEW016

Μετεωρολογικές αναφορές και προγνώσεις για περισσότερα από 4000 αεροδρόμια (δελτία METAR και TAF).

Οι διαθέσιμοι σταθμοί απεικονίζονται στο χάρτη με κίτρινες και κόκκινες κουκκίδες.

Μετακινήστε το ποντίκι πάνω από τις κουκκίδες για να δείτε το όνομα του σταθμού.

Στη συνέχεια, κάντε κλικ για να δείτε τις μετεωρολογικές αναφορές και τις προγνώσεις καιρού.

Για να αλλάξετε το χάρτη: κάντε κλικ στα πράσινα κουμπιά με τον μαύρο σταυρό για να ζουμάρετε, στο πράσινο κουμπί με την παύλα για να αφαιρέσετε το ζουμ ή στα πράσινα βέλη για να αντιπαραβάλλετε χάρτες.


METAR-TAF: